sensor_id;sensor_type;location;lat;lon;timestamp;temperature;humidity
67027;DHT22;53933;52.142;11.738;2022-11-15T00:00:43;21.00;75.20
67027;DHT22;53933;52.142;11.738;2022-11-15T00:03:11;21.00;75.30
67027;DHT22;53933;52.142;11.738;2022-11-15T00:05:39;21.00;75.10
67027;DHT22;53933;52.142;11.738;2022-11-15T00:08:05;21.00;75.10
67027;DHT22;53933;52.142;11.738;2022-11-15T00:10:32;21.00;75.20
67027;DHT22;53933;52.142;11.738;2022-11-15T00:13:04;20.90;75.00
67027;DHT22;53933;52.142;11.738;2022-11-15T00:15:31;20.90;74.70
67027;DHT22;53933;52.142;11.738;2022-11-15T00:17:57;20.90;75.00
67027;DHT22;53933;52.142;11.738;2022-11-15T00:20:24;20.90;75.30
67027;DHT22;53933;52.142;11.738;2022-11-15T00:22:51;20.80;75.40
67027;DHT22;53933;52.142;11.738;2022-11-15T00:25:17;20.90;75.70
67027;DHT22;53933;52.142;11.738;2022-11-15T00:27:44;20.80;75.40
67027;DHT22;53933;52.142;11.738;2022-11-15T00:30:13;20.80;75.50
67027;DHT22;53933;52.142;11.738;2022-11-15T00:32:40;20.80;75.60
67027;DHT22;53933;52.142;11.738;2022-11-15T00:35:07;20.80;75.60
67027;DHT22;53933;52.142;11.738;2022-11-15T00:37:33;20.80;75.60
67027;DHT22;53933;52.142;11.738;2022-11-15T00:40:00;20.80;75.60
67027;DHT22;53933;52.142;11.738;2022-11-15T00:42:27;20.80;75.70
67027;DHT22;53933;52.142;11.738;2022-11-15T00:44:53;20.80;76.00
67027;DHT22;53933;52.142;11.738;2022-11-15T00:47:21;20.80;75.60
67027;DHT22;53933;52.142;11.738;2022-11-15T00:49:48;20.80;75.80
67027;DHT22;53933;52.142;11.738;2022-11-15T00:52:15;20.80;75.90
67027;DHT22;53933;52.142;11.738;2022-11-15T00:54:41;20.80;75.80
67027;DHT22;53933;52.142;11.738;2022-11-15T00:57:08;20.80;76.00
67027;DHT22;53933;52.142;11.738;2022-11-15T00:59:35;20.70;75.90
67027;DHT22;53933;52.142;11.738;2022-11-15T01:02:01;20.70;75.70
67027;DHT22;53933;52.142;11.738;2022-11-15T01:04:29;20.70;75.80
67027;DHT22;53933;52.142;11.738;2022-11-15T01:06:56;20.70;75.70
67027;DHT22;53933;52.142;11.738;2022-11-15T01:09:23;20.70;76.00
67027;DHT22;53933;52.142;11.738;2022-11-15T01:11:50;20.70;75.80
67027;DHT22;53933;52.142;11.738;2022-11-15T01:14:16;20.60;75.80
67027;DHT22;53933;52.142;11.738;2022-11-15T01:16:43;20.70;76.00
67027;DHT22;53933;52.142;11.738;2022-11-15T01:19:10;20.60;75.70
67027;DHT22;53933;52.142;11.738;2022-11-15T01:21:38;20.60;75.90
67027;DHT22;53933;52.142;11.738;2022-11-15T01:24:05;20.70;76.00
67027;DHT22;53933;52.142;11.738;2022-11-15T01:26:32;20.70;76.10
67027;DHT22;53933;52.142;11.738;2022-11-15T01:28:58;20.60;75.90
67027;DHT22;53933;52.142;11.738;2022-11-15T01:31:25;20.60;76.40
67027;DHT22;53933;52.142;11.738;2022-11-15T01:33:52;20.70;76.40
67027;DHT22;53933;52.142;11.738;2022-11-15T01:36:21;20.60;76.40
67027;DHT22;53933;52.142;11.738;2022-11-15T01:38:54;20.70;76.50
67027;DHT22;53933;52.142;11.738;2022-11-15T01:41:23;20.70;76.60
67027;DHT22;53933;52.142;11.738;2022-11-15T01:43:53;20.70;76.90
67027;DHT22;53933;52.142;11.738;2022-11-15T01:46:28;20.70;76.80
67027;DHT22;53933;52.142;11.738;2022-11-15T01:48:59;20.70;76.80
67027;DHT22;53933;52.142;11.738;2022-11-15T01:51:28;20.80;76.90
67027;DHT22;53933;52.142;11.738;2022-11-15T01:54:00;20.80;77.00
67027;DHT22;53933;52.142;11.738;2022-11-15T01:56:30;20.80;76.90
67027;DHT22;53933;52.142;11.738;2022-11-15T01:59:00;20.80;76.80
67027;DHT22;53933;52.142;11.738;2022-11-15T02:01:28;20.80;76.70
67027;DHT22;53933;52.142;11.738;2022-11-15T02:03:59;20.80;76.70
67027;DHT22;53933;52.142;11.738;2022-11-15T02:06:27;20.80;76.60
67027;DHT22;53933;52.142;11.738;2022-11-15T02:08:54;20.80;76.60
67027;DHT22;53933;52.142;11.738;2022-11-15T02:11:24;20.80;76.60
67027;DHT22;53933;52.142;11.738;2022-11-15T02:13:50;20.80;76.60
67027;DHT22;53933;52.142;11.738;2022-11-15T02:16:25;20.90;76.70
67027;DHT22;53933;52.142;11.738;2022-11-15T02:18:59;20.80;76.70
67027;DHT22;53933;52.142;11.738;2022-11-15T02:21:31;20.90;76.70
67027;DHT22;53933;52.142;11.738;2022-11-15T02:24:32;20.90;77.60
67027;DHT22;53933;52.142;11.738;2022-11-15T02:27:34;20.90;76.70
67027;DHT22;53933;52.142;11.738;2022-11-15T02:30:21;20.90;76.70
67027;DHT22;53933;52.142;11.738;2022-11-15T02:32:50;20.90;76.70
67027;DHT22;53933;52.142;11.738;2022-11-15T02:35:28;20.90;76.80
67027;DHT22;53933;52.142;11.738;2022-11-15T02:37:58;20.90;76.80
67027;DHT22;53933;52.142;11.738;2022-11-15T02:40:36;20.90;76.80
67027;DHT22;53933;52.142;11.738;2022-11-15T02:43:09;20.90;76.90
67027;DHT22;53933;52.142;11.738;2022-11-15T02:46:02;20.90;77.00
67027;DHT22;53933;52.142;11.738;2022-11-15T02:48:31;20.90;77.00
67027;DHT22;53933;52.142;11.738;2022-11-15T02:50:59;20.90;77.80
67027;DHT22;53933;52.142;11.738;2022-11-15T02:53:27;20.90;76.90
67027;DHT22;53933;52.142;11.738;2022-11-15T02:55:55;20.90;77.00
67027;DHT22;53933;52.142;11.738;2022-11-15T03:01:32;20.80;77.10
67027;DHT22;53933;52.142;11.738;2022-11-15T03:04:11;20.80;77.40
67027;DHT22;53933;52.142;11.738;2022-11-15T03:06:43;20.80;77.40
67027;DHT22;53933;52.142;11.738;2022-11-15T03:09:19;20.70;77.40
67027;DHT22;53933;52.142;11.738;2022-11-15T03:11:56;20.70;77.50
67027;DHT22;53933;52.142;11.738;2022-11-15T03:14:28;20.70;77.60
67027;DHT22;53933;52.142;11.738;2022-11-15T03:17:00;20.70;77.70
67027;DHT22;53933;52.142;11.738;2022-11-15T03:19:33;20.70;77.90
67027;DHT22;53933;52.142;11.738;2022-11-15T03:22:03;20.70;78.00
67027;DHT22;53933;52.142;11.738;2022-11-15T03:24:33;20.70;78.00
67027;DHT22;53933;52.142;11.738;2022-11-15T03:27:03;20.70;78.10
67027;DHT22;53933;52.142;11.738;2022-11-15T03:29:35;20.60;78.10
67027;DHT22;53933;52.142;11.738;2022-11-15T03:32:07;20.70;78.30
67027;DHT22;53933;52.142;11.738;2022-11-15T03:34:41;20.70;78.20
67027;DHT22;53933;52.142;11.738;2022-11-15T03:37:10;20.70;78.20
67027;DHT22;53933;52.142;11.738;2022-11-15T03:39:39;20.70;78.20
67027;DHT22;53933;52.142;11.738;2022-11-15T03:42:14;20.70;78.20
67027;DHT22;53933;52.142;11.738;2022-11-15T03:44:48;20.70;78.30
67027;DHT22;53933;52.142;11.738;2022-11-15T03:47:22;20.70;79.20
67027;DHT22;53933;52.142;11.738;2022-11-15T03:49:52;20.70;78.20
67027;DHT22;53933;52.142;11.738;2022-11-15T03:52:20;20.70;78.20
67027;DHT22;53933;52.142;11.738;2022-11-15T03:54:49;20.60;78.20
67027;DHT22;53933;52.142;11.738;2022-11-15T03:57:16;20.60;78.20
67027;DHT22;53933;52.142;11.738;2022-11-15T03:59:43;20.70;78.30
67027;DHT22;53933;52.142;11.738;2022-11-15T04:02:10;20.60;78.30
67027;DHT22;53933;52.142;11.738;2022-11-15T04:04:38;20.60;78.40
67027;DHT22;53933;52.142;11.738;2022-11-15T04:07:05;20.60;78.40
67027;DHT22;53933;52.142;11.738;2022-11-15T04:09:31;20.60;78.50
67027;DHT22;53933;52.142;11.738;2022-11-15T04:11:58;20.60;78.70
67027;DHT22;53933;52.142;11.738;2022-11-15T04:14:25;20.60;79.60
67027;DHT22;53933;52.142;11.738;2022-11-15T04:16:51;20.60;78.60
67027;DHT22;53933;52.142;11.738;2022-11-15T04:19:18;20.60;78.70
67027;DHT22;53933;52.142;11.738;2022-11-15T04:22:04;20.60;78.70
67027;DHT22;53933;52.142;11.738;2022-11-15T04:24:48;20.60;78.60
67027;DHT22;53933;52.142;11.738;2022-11-15T04:27:15;20.60;78.50
67027;DHT22;53933;52.142;11.738;2022-11-15T04:29:41;20.70;78.60
67027;DHT22;53933;52.142;11.738;2022-11-15T04:32:08;20.60;78.50
67027;DHT22;53933;52.142;11.738;2022-11-15T04:34:35;20.60;78.60
67027;DHT22;53933;52.142;11.738;2022-11-15T04:37:05;20.60;78.50
67027;DHT22;53933;52.142;11.738;2022-11-15T04:39:42;20.60;78.50
67027;DHT22;53933;52.142;11.738;2022-11-15T04:42:10;20.60;78.50
67027;DHT22;53933;52.142;11.738;2022-11-15T04:44:37;20.60;78.60
67027;DHT22;53933;52.142;11.738;2022-11-15T04:47:04;20.60;78.60
67027;DHT22;53933;52.142;11.738;2022-11-15T04:49:31;20.60;78.60
67027;DHT22;53933;52.142;11.738;2022-11-15T04:51:58;20.60;78.60
67027;DHT22;53933;52.142;11.738;2022-11-15T04:54:26;20.60;78.70
67027;DHT22;53933;52.142;11.738;2022-11-15T04:56:52;20.60;78.70
67027;DHT22;53933;52.142;11.738;2022-11-15T04:59:19;20.50;78.80
67027;DHT22;53933;52.142;11.738;2022-11-15T05:01:46;20.50;78.80
67027;DHT22;53933;52.142;11.738;2022-11-15T05:04:12;20.60;78.90
67027;DHT22;53933;52.142;11.738;2022-11-15T05:06:44;20.60;78.90
67027;DHT22;53933;52.142;11.738;2022-11-15T05:09:11;20.60;78.90
67027;DHT22;53933;52.142;11.738;2022-11-15T05:11:40;20.60;79.00
67027;DHT22;53933;52.142;11.738;2022-11-15T05:14:07;20.50;79.00
67027;DHT22;53933;52.142;11.738;2022-11-15T05:16:34;20.50;79.10
67027;DHT22;53933;52.142;11.738;2022-11-15T05:19:01;20.50;79.10
67027;DHT22;53933;52.142;11.738;2022-11-15T05:21:28;20.50;79.10
67027;DHT22;53933;52.142;11.738;2022-11-15T05:23:55;20.50;80.00
67027;DHT22;53933;52.142;11.738;2022-11-15T05:26:22;20.50;79.10
67027;DHT22;53933;52.142;11.738;2022-11-15T05:28:53;20.50;79.10
67027;DHT22;53933;52.142;11.738;2022-11-15T05:31:21;20.50;79.20
67027;DHT22;53933;52.142;11.738;2022-11-15T05:33:49;20.50;79.20
67027;DHT22;53933;52.142;11.738;2022-11-15T05:36:20;20.50;79.40
67027;DHT22;53933;52.142;11.738;2022-11-15T05:38:49;20.50;79.40
67027;DHT22;53933;52.142;11.738;2022-11-15T05:41:17;20.60;79.40
67027;DHT22;53933;52.142;11.738;2022-11-15T05:43:45;20.50;79.40
67027;DHT22;53933;52.142;11.738;2022-11-15T05:46:14;20.60;79.40
67027;DHT22;53933;52.142;11.738;2022-11-15T05:48:43;20.50;79.40
67027;DHT22;53933;52.142;11.738;2022-11-15T05:51:12;20.50;79.40
67027;DHT22;53933;52.142;11.738;2022-11-15T05:53:39;20.50;79.50
67027;DHT22;53933;52.142;11.738;2022-11-15T05:56:06;20.50;79.50
67027;DHT22;53933;52.142;11.738;2022-11-15T05:58:36;20.50;79.60
67027;DHT22;53933;52.142;11.738;2022-11-15T06:01:03;20.50;79.60
67027;DHT22;53933;52.142;11.738;2022-11-15T06:03:32;20.50;79.60
67027;DHT22;53933;52.142;11.738;2022-11-15T06:05:58;20.50;79.80
67027;DHT22;53933;52.142;11.738;2022-11-15T06:08:25;20.50;79.70
67027;DHT22;53933;52.142;11.738;2022-11-15T06:10:52;20.50;79.80
67027;DHT22;53933;52.142;11.738;2022-11-15T06:13:18;20.50;79.90
67027;DHT22;53933;52.142;11.738;2022-11-15T06:15:45;20.50;79.90
67027;DHT22;53933;52.142;11.738;2022-11-15T06:18:12;20.50;79.90
67027;DHT22;53933;52.142;11.738;2022-11-15T06:20:40;20.50;79.90
67027;DHT22;53933;52.142;11.738;2022-11-15T06:23:07;20.50;79.90
67027;DHT22;53933;52.142;11.738;2022-11-15T06:25:33;20.50;80.00
67027;DHT22;53933;52.142;11.738;2022-11-15T06:28:00;20.50;79.90
67027;DHT22;53933;52.142;11.738;2022-11-15T06:30:27;20.50;80.10
67027;DHT22;53933;52.142;11.738;2022-11-15T06:32:59;20.50;80.00
67027;DHT22;53933;52.142;11.738;2022-11-15T06:35:27;20.50;80.10
67027;DHT22;53933;52.142;11.738;2022-11-15T06:37:55;20.50;80.00
67027;DHT22;53933;52.142;11.738;2022-11-15T06:40:22;20.50;80.20
67027;DHT22;53933;52.142;11.738;2022-11-15T06:42:49;20.50;80.10
67027;DHT22;53933;52.142;11.738;2022-11-15T06:45:15;20.50;80.20
67027;DHT22;53933;52.142;11.738;2022-11-15T06:47:46;20.50;80.20
67027;DHT22;53933;52.142;11.738;2022-11-15T06:50:13;20.50;80.30
67027;DHT22;53933;52.142;11.738;2022-11-15T06:52:39;20.50;80.50
67027;DHT22;53933;52.142;11.738;2022-11-15T06:55:08;20.40;76.90
67027;DHT22;53933;52.142;11.738;2022-11-15T06:57:35;20.20;76.30
67027;DHT22;53933;52.142;11.738;2022-11-15T07:00:03;20.10;74.90
67027;DHT22;53933;52.142;11.738;2022-11-15T07:02:30;19.90;74.80
67027;DHT22;53933;52.142;11.738;2022-11-15T07:04:57;19.80;74.80
67027;DHT22;53933;52.142;11.738;2022-11-15T07:07:24;19.80;74.70
67027;DHT22;53933;52.142;11.738;2022-11-15T07:09:50;19.70;74.00
67027;DHT22;53933;52.142;11.738;2022-11-15T07:12:18;19.70;74.50
67027;DHT22;53933;52.142;11.738;2022-11-15T07:14:45;19.70;73.90
67027;DHT22;53933;52.142;11.738;2022-11-15T07:17:12;19.70;73.70
67027;DHT22;53933;52.142;11.738;2022-11-15T07:19:38;19.70;73.80
67027;DHT22;53933;52.142;11.738;2022-11-15T07:22:05;19.80;73.90
67027;DHT22;53933;52.142;11.738;2022-11-15T07:24:32;19.80;73.60
67027;DHT22;53933;52.142;11.738;2022-11-15T07:26:58;19.80;72.70
67027;DHT22;53933;52.142;11.738;2022-11-15T07:29:26;19.80;75.70
67027;DHT22;53933;52.142;11.738;2022-11-15T07:31:53;19.90;77.00
67027;DHT22;53933;52.142;11.738;2022-11-15T07:34:20;20.00;77.00
67027;DHT22;53933;52.142;11.738;2022-11-15T07:36:47;20.10;77.00
67027;DHT22;53933;52.142;11.738;2022-11-15T07:39:14;20.20;76.70
67027;DHT22;53933;52.142;11.738;2022-11-15T07:41:40;20.30;76.90
67027;DHT22;53933;52.142;11.738;2022-11-15T07:44:08;20.30;77.00
67027;DHT22;53933;52.142;11.738;2022-11-15T07:46:36;20.40;77.10
67027;DHT22;53933;52.142;11.738;2022-11-15T07:49:03;20.50;76.80
67027;DHT22;53933;52.142;11.738;2022-11-15T07:51:30;20.60;76.40
67027;DHT22;53933;52.142;11.738;2022-11-15T07:54:00;20.70;76.90
67027;DHT22;53933;52.142;11.738;2022-11-15T07:56:27;20.80;76.60
67027;DHT22;53933;52.142;11.738;2022-11-15T07:58:53;20.90;76.60
67027;DHT22;53933;52.142;11.738;2022-11-15T08:01:20;20.90;76.50
67027;DHT22;53933;52.142;11.738;2022-11-15T08:03:48;21.10;76.30
67027;DHT22;53933;52.142;11.738;2022-11-15T08:06:15;21.30;75.90
67027;DHT22;53933;52.142;11.738;2022-11-15T08:08:41;21.50;75.40
67027;DHT22;53933;52.142;11.738;2022-11-15T08:11:08;21.70;75.00
67027;DHT22;53933;52.142;11.738;2022-11-15T08:13:35;21.90;74.60
67027;DHT22;53933;52.142;11.738;2022-11-15T08:16:02;22.10;74.10
67027;DHT22;53933;52.142;11.738;2022-11-15T08:18:30;22.30;73.50
67027;DHT22;53933;52.142;11.738;2022-11-15T08:21:00;22.50;73.00
67027;DHT22;53933;52.142;11.738;2022-11-15T08:23:27;22.70;72.50
67027;DHT22;53933;52.142;11.738;2022-11-15T08:25:59;22.80;71.80
67027;DHT22;53933;52.142;11.738;2022-11-15T08:28:25;23.00;71.30
67027;DHT22;53933;52.142;11.738;2022-11-15T08:30:52;23.10;70.80
67027;DHT22;53933;52.142;11.738;2022-11-15T08:33:19;23.30;71.20
67027;DHT22;53933;52.142;11.738;2022-11-15T08:35:46;23.50;69.90
67027;DHT22;53933;52.142;11.738;2022-11-15T08:38:14;23.60;69.40
67027;DHT22;53933;52.142;11.738;2022-11-15T08:40:41;23.80;69.00
67027;DHT22;53933;52.142;11.738;2022-11-15T08:43:07;23.90;68.70
67027;DHT22;53933;52.142;11.738;2022-11-15T08:45:35;24.00;68.20
67027;DHT22;53933;52.142;11.738;2022-11-15T08:48:02;24.20;67.90
67027;DHT22;53933;52.142;11.738;2022-11-15T08:50:29;24.30;67.50
67027;DHT22;53933;52.142;11.738;2022-11-15T08:52:55;24.40;67.20
67027;DHT22;53933;52.142;11.738;2022-11-15T08:55:23;24.50;67.00
67027;DHT22;53933;52.142;11.738;2022-11-15T08:57:50;24.60;66.70
67027;DHT22;53933;52.142;11.738;2022-11-15T09:00:17;24.70;67.30
67027;DHT22;53933;52.142;11.738;2022-11-15T09:02:45;24.80;66.20
67027;DHT22;53933;52.142;11.738;2022-11-15T09:05:12;24.90;65.90
67027;DHT22;53933;52.142;11.738;2022-11-15T09:07:40;25.00;65.70
67027;DHT22;53933;52.142;11.738;2022-11-15T09:10:08;25.00;64.30
67027;DHT22;53933;52.142;11.738;2022-11-15T09:12:36;25.00;64.40
67027;DHT22;53933;52.142;11.738;2022-11-15T09:15:03;25.00;64.20
67027;DHT22;53933;52.142;11.738;2022-11-15T09:17:30;25.00;64.30
67027;DHT22;53933;52.142;11.738;2022-11-15T09:19:56;25.10;64.30
67027;DHT22;53933;52.142;11.738;2022-11-15T09:22:23;25.20;64.20
67027;DHT22;53933;52.142;11.738;2022-11-15T09:24:50;25.30;64.10
67027;DHT22;53933;52.142;11.738;2022-11-15T09:27:17;25.40;64.00
67027;DHT22;53933;52.142;11.738;2022-11-15T09:29:45;25.50;63.80
67027;DHT22;53933;52.142;11.738;2022-11-15T09:32:11;25.60;63.70
67027;DHT22;53933;52.142;11.738;2022-11-15T09:34:38;25.70;63.60
67027;DHT22;53933;52.142;11.738;2022-11-15T09:37:05;25.70;63.50
67027;DHT22;53933;52.142;11.738;2022-11-15T09:39:31;25.80;63.60
67027;DHT22;53933;52.142;11.738;2022-11-15T09:42:25;25.80;63.50
67027;DHT22;53933;52.142;11.738;2022-11-15T09:45:06;25.90;63.50
67027;DHT22;53933;52.142;11.738;2022-11-15T09:50:32;26.00;63.30
67027;DHT22;53933;52.142;11.738;2022-11-15T09:53:00;26.10;63.30
67027;DHT22;53933;52.142;11.738;2022-11-15T09:55:34;26.10;63.10
67027;DHT22;53933;52.142;11.738;2022-11-15T09:58:09;26.20;63.10
67027;DHT22;53933;52.142;11.738;2022-11-15T10:00:41;26.20;63.00
67027;DHT22;53933;52.142;11.738;2022-11-15T10:03:12;26.20;63.00
67027;DHT22;53933;52.142;11.738;2022-11-15T10:05:42;26.30;64.00
67027;DHT22;53933;52.142;11.738;2022-11-15T10:11:08;26.30;63.10
67027;DHT22;53933;52.142;11.738;2022-11-15T10:13:39;26.30;63.10
67027;DHT22;53933;52.142;11.738;2022-11-15T10:16:24;26.40;63.20
67027;DHT22;53933;52.142;11.738;2022-11-15T10:19:01;26.30;63.20
67027;DHT22;53933;52.142;11.738;2022-11-15T10:21:44;26.30;63.40
67027;DHT22;53933;52.142;11.738;2022-11-15T10:24:17;26.20;63.50
67027;DHT22;53933;52.142;11.738;2022-11-15T10:26:46;26.20;63.70
67027;DHT22;53933;52.142;11.738;2022-11-15T10:29:18;26.20;63.90
67027;DHT22;53933;52.142;11.738;2022-11-15T10:31:46;26.10;63.90
67027;DHT22;53933;52.142;11.738;2022-11-15T10:34:15;26.10;64.20
67027;DHT22;53933;52.142;11.738;2022-11-15T10:36:44;26.10;64.30
67027;DHT22;53933;52.142;11.738;2022-11-15T10:39:12;26.10;64.40
67027;DHT22;53933;52.142;11.738;2022-11-15T10:41:41;26.10;64.40
67027;DHT22;53933;52.142;11.738;2022-11-15T10:44:20;26.10;64.50
67027;DHT22;53933;52.142;11.738;2022-11-15T10:47:05;26.10;64.50
67027;DHT22;53933;52.142;11.738;2022-11-15T10:49:33;26.10;64.50
67027;DHT22;53933;52.142;11.738;2022-11-15T10:52:02;26.10;64.70
67027;DHT22;53933;52.142;11.738;2022-11-15T10:54:33;26.10;64.80
67027;DHT22;53933;52.142;11.738;2022-11-15T10:57:06;26.00;62.50
67027;DHT22;53933;52.142;11.738;2022-11-15T10:59:36;25.70;58.80
67027;DHT22;53933;52.142;11.738;2022-11-15T11:02:26;24.70;58.80
67027;DHT22;53933;52.142;11.738;2022-11-15T11:04:53;23.90;60.90
67027;DHT22;53933;52.142;11.738;2022-11-15T11:07:22;23.60;60.40
67027;DHT22;53933;52.142;11.738;2022-11-15T11:09:57;23.80;62.90
67027;DHT22;53933;52.142;11.738;2022-11-15T11:12:28;24.00;60.60
67027;DHT22;53933;52.142;11.738;2022-11-15T11:14:57;24.00;60.40
67027;DHT22;53933;52.142;11.738;2022-11-15T11:17:34;23.80;58.80
67027;DHT22;53933;52.142;11.738;2022-11-15T11:20:08;23.70;60.30
67027;DHT22;53933;52.142;11.738;2022-11-15T11:22:42;23.40;59.30
67027;DHT22;53933;52.142;11.738;2022-11-15T11:25:22;23.10;58.70
67027;DHT22;53933;52.142;11.738;2022-11-15T11:28:00;22.90;59.40
67027;DHT22;53933;52.142;11.738;2022-11-15T11:30:38;23.10;58.30
67027;DHT22;53933;52.142;11.738;2022-11-15T11:33:16;23.20;60.10
67027;DHT22;53933;52.142;11.738;2022-11-15T11:36:03;23.60;58.60
67027;DHT22;53933;52.142;11.738;2022-11-15T11:38:42;23.70;58.20
67027;DHT22;53933;52.142;11.738;2022-11-15T11:41:15;23.50;58.50
67027;DHT22;53933;52.142;11.738;2022-11-15T11:43:52;23.60;57.80
67027;DHT22;53933;52.142;11.738;2022-11-15T11:46:35;23.80;58.60
67027;DHT22;53933;52.142;11.738;2022-11-15T11:49:09;24.20;58.00
67027;DHT22;53933;52.142;11.738;2022-11-15T11:51:39;24.10;56.20
67027;DHT22;53933;52.142;11.738;2022-11-15T11:54:12;24.10;56.80
67027;DHT22;53933;52.142;11.738;2022-11-15T11:56:43;24.40;57.10
67027;DHT22;53933;52.142;11.738;2022-11-15T11:59:25;24.70;57.00
67027;DHT22;53933;52.142;11.738;2022-11-15T12:01:55;24.90;56.80
67027;DHT22;53933;52.142;11.738;2022-11-15T12:04:26;24.70;55.10
67027;DHT22;53933;52.142;11.738;2022-11-15T12:06:59;24.50;56.30
67027;DHT22;53933;52.142;11.738;2022-11-15T12:09:32;24.10;55.30
67027;DHT22;53933;52.142;11.738;2022-11-15T12:12:05;23.90;54.70
67027;DHT22;53933;52.142;11.738;2022-11-15T12:14:39;23.70;56.00
67027;DHT22;53933;52.142;11.738;2022-11-15T12:17:08;23.30;56.70
67027;DHT22;53933;52.142;11.738;2022-11-15T12:19:38;23.20;57.30
67027;DHT22;53933;52.142;11.738;2022-11-15T12:22:09;23.00;57.30
67027;DHT22;53933;52.142;11.738;2022-11-15T12:24:41;22.90;57.30
67027;DHT22;53933;52.142;11.738;2022-11-15T12:27:16;22.70;57.90
67027;DHT22;53933;52.142;11.738;2022-11-15T12:29:46;22.50;58.10
67027;DHT22;53933;52.142;11.738;2022-11-15T12:32:24;22.50;59.10
67027;DHT22;53933;52.142;11.738;2022-11-15T12:34:53;22.50;58.50
67027;DHT22;53933;52.142;11.738;2022-11-15T12:37:49;22.50;58.60
67027;DHT22;53933;52.142;11.738;2022-11-15T12:40:33;22.50;58.60
67027;DHT22;53933;52.142;11.738;2022-11-15T12:45:44;22.80;59.00
67027;DHT22;53933;52.142;11.738;2022-11-15T12:57:41;22.50;61.70
67027;DHT22;53933;52.142;11.738;2022-11-15T13:00:38;22.50;63.90
67027;DHT22;53933;52.142;11.738;2022-11-15T13:03:21;22.50;61.90
67027;DHT22;53933;52.142;11.738;2022-11-15T13:05:56;22.40;63.70
67027;DHT22;53933;52.142;11.738;2022-11-15T13:08:44;22.60;67.40
67027;DHT22;53933;52.142;11.738;2022-11-15T13:11:48;23.10;66.40
67027;DHT22;53933;52.142;11.738;2022-11-15T13:14:47;23.60;66.00
67027;DHT22;53933;52.142;11.738;2022-11-15T13:17:32;23.90;65.10
67027;DHT22;53933;52.142;11.738;2022-11-15T13:20:09;24.10;64.50
67027;DHT22;53933;52.142;11.738;2022-11-15T13:22:41;24.20;64.30
67027;DHT22;53933;52.142;11.738;2022-11-15T13:25:58;24.20;64.30
67027;DHT22;53933;52.142;11.738;2022-11-15T13:28:32;24.20;64.20
67027;DHT22;53933;52.142;11.738;2022-11-15T13:31:21;24.20;64.20
67027;DHT22;53933;52.142;11.738;2022-11-15T13:33:49;24.30;64.20
67027;DHT22;53933;52.142;11.738;2022-11-15T13:36:19;24.30;64.10
67027;DHT22;53933;52.142;11.738;2022-11-15T13:38:55;24.40;64.20
67027;DHT22;53933;52.142;11.738;2022-11-15T13:41:24;24.40;64.20
67027;DHT22;53933;52.142;11.738;2022-11-15T13:43:52;24.30;64.50
67027;DHT22;53933;52.142;11.738;2022-11-15T13:46:22;24.30;64.80
67027;DHT22;53933;52.142;11.738;2022-11-15T13:48:53;24.30;64.80
67027;DHT22;53933;52.142;11.738;2022-11-15T13:51:24;24.30;65.00
67027;DHT22;53933;52.142;11.738;2022-11-15T13:53:54;24.30;65.00
67027;DHT22;53933;52.142;11.738;2022-11-15T13:56:22;24.30;65.00
67027;DHT22;53933;52.142;11.738;2022-11-15T13:58:49;24.30;65.20
67027;DHT22;53933;52.142;11.738;2022-11-15T14:01:18;24.30;65.30
67027;DHT22;53933;52.142;11.738;2022-11-15T14:03:56;24.30;65.50
67027;DHT22;53933;52.142;11.738;2022-11-15T14:06:25;24.20;65.60
67027;DHT22;53933;52.142;11.738;2022-11-15T14:11:50;24.20;65.90
67027;DHT22;53933;52.142;11.738;2022-11-15T14:14:19;24.20;66.00
67027;DHT22;53933;52.142;11.738;2022-11-15T14:16:49;24.20;66.10
67027;DHT22;53933;52.142;11.738;2022-11-15T14:19:39;24.20;66.20
67027;DHT22;53933;52.142;11.738;2022-11-15T14:22:12;24.20;66.30
67027;DHT22;53933;52.142;11.738;2022-11-15T14:24:39;24.10;66.40
67027;DHT22;53933;52.142;11.738;2022-11-15T14:27:24;24.10;66.50
67027;DHT22;53933;52.142;11.738;2022-11-15T14:29:51;24.10;66.60
67027;DHT22;53933;52.142;11.738;2022-11-15T14:32:20;24.20;66.60
67027;DHT22;53933;52.142;11.738;2022-11-15T14:34:49;24.20;66.60
67027;DHT22;53933;52.142;11.738;2022-11-15T14:37:23;24.20;66.70
67027;DHT22;53933;52.142;11.738;2022-11-15T14:39:50;24.10;66.80
67027;DHT22;53933;52.142;11.738;2022-11-15T14:42:18;24.00;66.30
67027;DHT22;53933;52.142;11.738;2022-11-15T14:44:45;24.00;67.60
67027;DHT22;53933;52.142;11.738;2022-11-15T14:47:12;23.90;66.90
67027;DHT22;53933;52.142;11.738;2022-11-15T14:49:39;23.90;67.10
67027;DHT22;53933;52.142;11.738;2022-11-15T14:52:21;23.80;67.20
67027;DHT22;53933;52.142;11.738;2022-11-15T14:54:49;23.70;67.20
67027;DHT22;53933;52.142;11.738;2022-11-15T14:57:16;23.70;67.30
67027;DHT22;53933;52.142;11.738;2022-11-15T14:59:42;23.60;67.30
67027;DHT22;53933;52.142;11.738;2022-11-15T15:02:15;23.60;67.40
67027;DHT22;53933;52.142;11.738;2022-11-15T15:04:43;23.50;67.50
67027;DHT22;53933;52.142;11.738;2022-11-15T15:07:11;23.40;67.60
67027;DHT22;53933;52.142;11.738;2022-11-15T15:09:37;23.40;68.60
67027;DHT22;53933;52.142;11.738;2022-11-15T15:12:05;23.40;68.00
67027;DHT22;53933;52.142;11.738;2022-11-15T15:14:32;23.30;68.10
67027;DHT22;53933;52.142;11.738;2022-11-15T15:16:59;23.20;68.10
67027;DHT22;53933;52.142;11.738;2022-11-15T15:19:26;23.20;68.40
67027;DHT22;53933;52.142;11.738;2022-11-15T15:21:52;23.20;68.50
67027;DHT22;53933;52.142;11.738;2022-11-15T15:24:20;23.20;68.60
67027;DHT22;53933;52.142;11.738;2022-11-15T15:26:47;23.20;68.70
67027;DHT22;53933;52.142;11.738;2022-11-15T15:29:14;23.10;68.80
67027;DHT22;53933;52.142;11.738;2022-11-15T15:31:41;23.10;68.90
67027;DHT22;53933;52.142;11.738;2022-11-15T15:34:07;23.10;69.10
67027;DHT22;53933;52.142;11.738;2022-11-15T15:36:34;23.00;69.20
67027;DHT22;53933;52.142;11.738;2022-11-15T15:39:01;23.00;69.40
67027;DHT22;53933;52.142;11.738;2022-11-15T15:41:29;22.90;69.40
67027;DHT22;53933;52.142;11.738;2022-11-15T15:43:55;22.90;69.80
67027;DHT22;53933;52.142;11.738;2022-11-15T15:46:22;22.90;69.80
67027;DHT22;53933;52.142;11.738;2022-11-15T15:48:49;22.90;69.90
67027;DHT22;53933;52.142;11.738;2022-11-15T15:51:16;22.90;70.10
67027;DHT22;53933;52.142;11.738;2022-11-15T15:53:42;22.90;70.10
67027;DHT22;53933;52.142;11.738;2022-11-15T15:56:09;22.80;70.10
67027;DHT22;53933;52.142;11.738;2022-11-15T15:58:37;22.80;70.40